sensor_id;sensor_type;location;lat;lon;timestamp;temperature;humidity
17956;DHT22;27666;51.498;11.966;2022-12-18T00:01:46;-3.80;99.90
17956;DHT22;27666;51.498;11.966;2022-12-18T00:04:33;-3.90;99.90
17956;DHT22;27666;51.498;11.966;2022-12-18T00:07:21;-4.00;99.90
17956;DHT22;27666;51.498;11.966;2022-12-18T00:10:08;-3.90;99.90
17956;DHT22;27666;51.498;11.966;2022-12-18T00:12:54;-4.10;99.90
17956;DHT22;27666;51.498;11.966;2022-12-18T00:15:41;-4.20;99.90
17956;DHT22;27666;51.498;11.966;2022-12-18T00:18:27;-4.20;99.90
17956;DHT22;27666;51.498;11.966;2022-12-18T00:21:14;-4.40;99.90
17956;DHT22;27666;51.498;11.966;2022-12-18T00:24:02;-4.40;99.90
17956;DHT22;27666;51.498;11.966;2022-12-18T00:26:49;-4.30;99.90
17956;DHT22;27666;51.498;11.966;2022-12-18T00:29:35;-4.40;99.90
17956;DHT22;27666;51.498;11.966;2022-12-18T00:32:22;-4.50;99.90
17956;DHT22;27666;51.498;11.966;2022-12-18T00:35:08;-4.60;99.90
17956;DHT22;27666;51.498;11.966;2022-12-18T00:37:54;-4.60;99.90
17956;DHT22;27666;51.498;11.966;2022-12-18T00:40:42;-4.50;99.90
17956;DHT22;27666;51.498;11.966;2022-12-18T00:43:29;-4.50;99.90
17956;DHT22;27666;51.498;11.966;2022-12-18T00:46:15;-4.50;99.90
17956;DHT22;27666;51.498;11.966;2022-12-18T00:49:01;-4.50;99.90
17956;DHT22;27666;51.498;11.966;2022-12-18T00:51:48;-4.50;99.90
17956;DHT22;27666;51.498;11.966;2022-12-18T00:54:34;-4.60;99.90
17956;DHT22;27666;51.498;11.966;2022-12-18T00:57:22;-4.80;99.90
17956;DHT22;27666;51.498;11.966;2022-12-18T01:00:12;-4.90;99.90
17956;DHT22;27666;51.498;11.966;2022-12-18T01:02:59;-4.90;99.90
17956;DHT22;27666;51.498;11.966;2022-12-18T01:05:45;-5.00;99.90
17956;DHT22;27666;51.498;11.966;2022-12-18T01:08:31;-5.00;99.90
17956;DHT22;27666;51.498;11.966;2022-12-18T01:11:21;-5.00;99.90
17956;DHT22;27666;51.498;11.966;2022-12-18T01:14:09;-5.00;99.90
17956;DHT22;27666;51.498;11.966;2022-12-18T01:16:55;-4.80;99.90
17956;DHT22;27666;51.498;11.966;2022-12-18T01:19:42;-4.80;99.90
17956;DHT22;27666;51.498;11.966;2022-12-18T01:22:28;-4.80;99.90
17956;DHT22;27666;51.498;11.966;2022-12-18T01:25:14;-4.90;99.90
17956;DHT22;27666;51.498;11.966;2022-12-18T01:28:01;-4.80;99.90
17956;DHT22;27666;51.498;11.966;2022-12-18T01:30:49;-5.10;99.90
17956;DHT22;27666;51.498;11.966;2022-12-18T01:33:35;-5.00;99.90
17956;DHT22;27666;51.498;11.966;2022-12-18T01:36:25;-4.90;99.90
17956;DHT22;27666;51.498;11.966;2022-12-18T01:39:13;-4.90;99.90
17956;DHT22;27666;51.498;11.966;2022-12-18T01:41:59;-4.80;99.90
17956;DHT22;27666;51.498;11.966;2022-12-18T01:44:56;-4.70;99.90
17956;DHT22;27666;51.498;11.966;2022-12-18T01:47:46;-4.70;99.90
17956;DHT22;27666;51.498;11.966;2022-12-18T01:50:35;-4.80;99.90
17956;DHT22;27666;51.498;11.966;2022-12-18T01:53:23;-4.70;99.90
17956;DHT22;27666;51.498;11.966;2022-12-18T01:56:13;-4.70;99.90
17956;DHT22;27666;51.498;11.966;2022-12-18T01:59:03;-4.70;99.90
17956;DHT22;27666;51.498;11.966;2022-12-18T02:01:50;-4.70;99.90
17956;DHT22;27666;51.498;11.966;2022-12-18T02:04:39;-4.70;99.90
17956;DHT22;27666;51.498;11.966;2022-12-18T02:07:40;-4.80;99.90
17956;DHT22;27666;51.498;11.966;2022-12-18T02:10:31;-4.70;99.90
17956;DHT22;27666;51.498;11.966;2022-12-18T02:13:30;-4.90;99.90
17956;DHT22;27666;51.498;11.966;2022-12-18T02:16:23;-4.90;99.90
17956;DHT22;27666;51.498;11.966;2022-12-18T02:19:25;-4.80;99.90
17956;DHT22;27666;51.498;11.966;2022-12-18T02:22:24;-5.00;99.90
17956;DHT22;27666;51.498;11.966;2022-12-18T02:25:26;-5.10;99.90
17956;DHT22;27666;51.498;11.966;2022-12-18T02:28:20;-5.00;99.90
17956;DHT22;27666;51.498;11.966;2022-12-18T02:31:11;-5.10;99.90
17956;DHT22;27666;51.498;11.966;2022-12-18T02:34:02;-5.10;99.90
17956;DHT22;27666;51.498;11.966;2022-12-18T02:36:50;-4.90;99.90
17956;DHT22;27666;51.498;11.966;2022-12-18T02:39:39;-5.00;99.90
17956;DHT22;27666;51.498;11.966;2022-12-18T02:42:28;-5.10;99.90
17956;DHT22;27666;51.498;11.966;2022-12-18T02:45:16;-5.20;99.90
17956;DHT22;27666;51.498;11.966;2022-12-18T02:48:03;-5.40;99.90
17956;DHT22;27666;51.498;11.966;2022-12-18T02:50:55;-5.40;99.90
17956;DHT22;27666;51.498;11.966;2022-12-18T02:53:45;-5.50;99.90
17956;DHT22;27666;51.498;11.966;2022-12-18T02:56:39;-5.50;99.90
17956;DHT22;27666;51.498;11.966;2022-12-18T02:59:32;-5.60;99.90
17956;DHT22;27666;51.498;11.966;2022-12-18T03:02:25;-5.60;99.90
17956;DHT22;27666;51.498;11.966;2022-12-18T03:05:16;-5.70;99.90
17956;DHT22;27666;51.498;11.966;2022-12-18T03:08:06;-5.60;99.90
17956;DHT22;27666;51.498;11.966;2022-12-18T03:10:59;-5.60;99.90
17956;DHT22;27666;51.498;11.966;2022-12-18T03:13:51;-5.60;99.90
17956;DHT22;27666;51.498;11.966;2022-12-18T03:16:40;-5.80;99.90
17956;DHT22;27666;51.498;11.966;2022-12-18T03:19:32;-5.70;99.90
17956;DHT22;27666;51.498;11.966;2022-12-18T03:22:19;-5.70;99.90
17956;DHT22;27666;51.498;11.966;2022-12-18T03:25:11;-5.70;99.90
17956;DHT22;27666;51.498;11.966;2022-12-18T03:27:59;-5.80;99.90
17956;DHT22;27666;51.498;11.966;2022-12-18T03:30:50;-5.70;99.90
17956;DHT22;27666;51.498;11.966;2022-12-18T03:33:39;-5.80;99.90
17956;DHT22;27666;51.498;11.966;2022-12-18T03:36:29;-5.80;99.90
17956;DHT22;27666;51.498;11.966;2022-12-18T03:39:15;-5.80;99.90
17956;DHT22;27666;51.498;11.966;2022-12-18T03:42:06;-5.90;99.90
17956;DHT22;27666;51.498;11.966;2022-12-18T03:44:56;-5.90;99.90
17956;DHT22;27666;51.498;11.966;2022-12-18T03:47:48;-6.00;99.90
17956;DHT22;27666;51.498;11.966;2022-12-18T03:50:45;-6.10;99.90
17956;DHT22;27666;51.498;11.966;2022-12-18T03:53:37;-6.10;99.90
17956;DHT22;27666;51.498;11.966;2022-12-18T03:56:28;-6.20;99.90
17956;DHT22;27666;51.498;11.966;2022-12-18T03:59:16;-6.10;99.90
17956;DHT22;27666;51.498;11.966;2022-12-18T04:02:04;-6.10;99.90
17956;DHT22;27666;51.498;11.966;2022-12-18T04:04:53;-6.10;99.90
17956;DHT22;27666;51.498;11.966;2022-12-18T04:07:43;-6.00;99.90
17956;DHT22;27666;51.498;11.966;2022-12-18T04:10:32;-6.00;99.90
17956;DHT22;27666;51.498;11.966;2022-12-18T04:13:22;-5.90;99.90
17956;DHT22;27666;51.498;11.966;2022-12-18T04:16:09;-6.00;99.90
17956;DHT22;27666;51.498;11.966;2022-12-18T04:18:55;-6.00;99.90
17956;DHT22;27666;51.498;11.966;2022-12-18T04:21:41;-5.90;99.90
17956;DHT22;27666;51.498;11.966;2022-12-18T04:24:28;-5.80;99.90
17956;DHT22;27666;51.498;11.966;2022-12-18T04:27:16;-5.70;99.90
17956;DHT22;27666;51.498;11.966;2022-12-18T04:30:03;-5.90;99.90
17956;DHT22;27666;51.498;11.966;2022-12-18T04:32:50;-6.10;99.90
17956;DHT22;27666;51.498;11.966;2022-12-18T04:35:37;-6.30;99.90
17956;DHT22;27666;51.498;11.966;2022-12-18T04:38:23;-6.50;99.90
17956;DHT22;27666;51.498;11.966;2022-12-18T04:41:10;-6.40;99.90
17956;DHT22;27666;51.498;11.966;2022-12-18T04:43:58;-6.30;99.90
17956;DHT22;27666;51.498;11.966;2022-12-18T04:46:44;-6.40;99.90
17956;DHT22;27666;51.498;11.966;2022-12-18T04:49:30;-6.40;99.90
17956;DHT22;27666;51.498;11.966;2022-12-18T04:52:17;-6.10;99.90
17956;DHT22;27666;51.498;11.966;2022-12-18T04:55:04;-6.20;99.90
17956;DHT22;27666;51.498;11.966;2022-12-18T04:57:51;-6.20;99.90
17956;DHT22;27666;51.498;11.966;2022-12-18T05:00:38;-6.20;99.90
17956;DHT22;27666;51.498;11.966;2022-12-18T05:03:25;-6.20;99.90
17956;DHT22;27666;51.498;11.966;2022-12-18T05:06:11;-6.30;99.90
17956;DHT22;27666;51.498;11.966;2022-12-18T05:08:58;-6.50;99.90
17956;DHT22;27666;51.498;11.966;2022-12-18T05:11:44;-6.30;99.90
17956;DHT22;27666;51.498;11.966;2022-12-18T05:14:31;-6.40;99.90
17956;DHT22;27666;51.498;11.966;2022-12-18T05:17:19;-6.40;99.90
17956;DHT22;27666;51.498;11.966;2022-12-18T05:20:06;-6.50;99.90
17956;DHT22;27666;51.498;11.966;2022-12-18T05:22:53;-6.60;99.90
17956;DHT22;27666;51.498;11.966;2022-12-18T05:25:40;-6.80;99.90
17956;DHT22;27666;51.498;11.966;2022-12-18T05:28:28;-6.80;99.90
17956;DHT22;27666;51.498;11.966;2022-12-18T05:31:15;-6.80;99.90
17956;DHT22;27666;51.498;11.966;2022-12-18T05:34:03;-6.80;99.90
17956;DHT22;27666;51.498;11.966;2022-12-18T05:36:50;-6.80;99.90
17956;DHT22;27666;51.498;11.966;2022-12-18T05:39:36;-6.80;99.90
17956;DHT22;27666;51.498;11.966;2022-12-18T05:42:23;-6.80;99.90
17956;DHT22;27666;51.498;11.966;2022-12-18T05:45:09;-6.70;99.90
17956;DHT22;27666;51.498;11.966;2022-12-18T05:47:56;-6.70;99.90
17956;DHT22;27666;51.498;11.966;2022-12-18T05:50:45;-6.70;99.90
17956;DHT22;27666;51.498;11.966;2022-12-18T05:53:32;-6.90;99.90
17956;DHT22;27666;51.498;11.966;2022-12-18T05:56:20;-7.00;99.90
17956;DHT22;27666;51.498;11.966;2022-12-18T05:59:06;-7.00;99.90
17956;DHT22;27666;51.498;11.966;2022-12-18T06:01:53;-6.90;99.90
17956;DHT22;27666;51.498;11.966;2022-12-18T06:04:40;-6.90;99.90
17956;DHT22;27666;51.498;11.966;2022-12-18T06:07:27;-7.00;99.90
17956;DHT22;27666;51.498;11.966;2022-12-18T06:10:14;-6.80;99.90
17956;DHT22;27666;51.498;11.966;2022-12-18T06:13:00;-6.80;99.90
17956;DHT22;27666;51.498;11.966;2022-12-18T06:15:47;-6.90;99.90
17956;DHT22;27666;51.498;11.966;2022-12-18T06:18:33;-6.90;99.90
17956;DHT22;27666;51.498;11.966;2022-12-18T06:21:20;-6.90;99.90
17956;DHT22;27666;51.498;11.966;2022-12-18T06:24:07;-7.00;99.90
17956;DHT22;27666;51.498;11.966;2022-12-18T06:26:54;-7.10;99.90
17956;DHT22;27666;51.498;11.966;2022-12-18T06:29:40;-6.90;99.90
17956;DHT22;27666;51.498;11.966;2022-12-18T06:32:27;-6.90;99.90
17956;DHT22;27666;51.498;11.966;2022-12-18T06:35:14;-7.10;99.90
17956;DHT22;27666;51.498;11.966;2022-12-18T06:38:01;-7.10;99.90
17956;DHT22;27666;51.498;11.966;2022-12-18T06:40:49;-7.00;99.90
17956;DHT22;27666;51.498;11.966;2022-12-18T06:43:35;-7.10;99.90
17956;DHT22;27666;51.498;11.966;2022-12-18T06:46:22;-7.10;99.90
17956;DHT22;27666;51.498;11.966;2022-12-18T06:49:09;-7.10;99.90
17956;DHT22;27666;51.498;11.966;2022-12-18T06:51:55;-7.10;99.90
17956;DHT22;27666;51.498;11.966;2022-12-18T06:54:41;-7.20;99.90
17956;DHT22;27666;51.498;11.966;2022-12-18T06:57:29;-7.00;99.90
17956;DHT22;27666;51.498;11.966;2022-12-18T07:00:16;-7.00;99.90
17956;DHT22;27666;51.498;11.966;2022-12-18T07:03:02;-6.90;99.90
17956;DHT22;27666;51.498;11.966;2022-12-18T07:05:48;-6.70;99.90
17956;DHT22;27666;51.498;11.966;2022-12-18T07:08:35;-6.80;99.90
17956;DHT22;27666;51.498;11.966;2022-12-18T07:11:22;-6.80;99.90
17956;DHT22;27666;51.498;11.966;2022-12-18T07:14:10;-6.70;99.90
17956;DHT22;27666;51.498;11.966;2022-12-18T07:16:56;-6.90;99.90
17956;DHT22;27666;51.498;11.966;2022-12-18T07:19:44;-6.70;99.90
17956;DHT22;27666;51.498;11.966;2022-12-18T07:22:30;-6.80;99.90
17956;DHT22;27666;51.498;11.966;2022-12-18T07:25:17;-6.90;99.90
17956;DHT22;27666;51.498;11.966;2022-12-18T07:28:04;-7.10;99.90
17956;DHT22;27666;51.498;11.966;2022-12-18T07:30:52;-7.10;99.90
17956;DHT22;27666;51.498;11.966;2022-12-18T07:33:40;-7.20;99.90
17956;DHT22;27666;51.498;11.966;2022-12-18T07:36:27;-7.40;99.90
17956;DHT22;27666;51.498;11.966;2022-12-18T07:39:14;-7.40;99.90
17956;DHT22;27666;51.498;11.966;2022-12-18T07:42:00;-7.40;99.90
17956;DHT22;27666;51.498;11.966;2022-12-18T07:45:06;-7.20;99.90
17956;DHT22;27666;51.498;11.966;2022-12-18T07:47:53;-7.20;99.90
17956;DHT22;27666;51.498;11.966;2022-12-18T07:50:40;-7.20;99.90
17956;DHT22;27666;51.498;11.966;2022-12-18T07:53:27;-7.30;99.90
17956;DHT22;27666;51.498;11.966;2022-12-18T07:56:13;-7.20;99.90
17956;DHT22;27666;51.498;11.966;2022-12-18T07:59:12;-7.20;99.90
17956;DHT22;27666;51.498;11.966;2022-12-18T08:01:58;-7.20;99.90
17956;DHT22;27666;51.498;11.966;2022-12-18T08:04:46;-7.10;99.90
17956;DHT22;27666;51.498;11.966;2022-12-18T08:07:33;-6.80;99.90
17956;DHT22;27666;51.498;11.966;2022-12-18T08:10:20;-6.60;99.90
17956;DHT22;27666;51.498;11.966;2022-12-18T08:13:06;-6.40;99.90
17956;DHT22;27666;51.498;11.966;2022-12-18T08:15:56;-6.20;99.90
17956;DHT22;27666;51.498;11.966;2022-12-18T08:18:43;-6.20;99.90
17956;DHT22;27666;51.498;11.966;2022-12-18T08:21:31;-5.70;99.90
17956;DHT22;27666;51.498;11.966;2022-12-18T08:24:18;-5.70;99.90
17956;DHT22;27666;51.498;11.966;2022-12-18T08:27:04;-5.50;99.90
17956;DHT22;27666;51.498;11.966;2022-12-18T08:30:11;-5.40;99.90
17956;DHT22;27666;51.498;11.966;2022-12-18T08:32:57;-5.40;99.90
17956;DHT22;27666;51.498;11.966;2022-12-18T08:35:44;-5.20;99.90
17956;DHT22;27666;51.498;11.966;2022-12-18T08:38:32;-5.00;99.90
17956;DHT22;27666;51.498;11.966;2022-12-18T08:41:20;-4.90;99.90
17956;DHT22;27666;51.498;11.966;2022-12-18T08:44:07;-4.80;99.90
17956;DHT22;27666;51.498;11.966;2022-12-18T08:47:11;-4.80;99.90
17956;DHT22;27666;51.498;11.966;2022-12-18T08:49:57;-4.80;99.90
17956;DHT22;27666;51.498;11.966;2022-12-18T08:52:44;-4.70;99.90
17956;DHT22;27666;51.498;11.966;2022-12-18T08:55:32;-4.60;99.90
17956;DHT22;27666;51.498;11.966;2022-12-18T08:58:19;-4.60;99.90
17956;DHT22;27666;51.498;11.966;2022-12-18T09:01:08;-4.50;99.90
17956;DHT22;27666;51.498;11.966;2022-12-18T09:03:55;-4.20;99.90
17956;DHT22;27666;51.498;11.966;2022-12-18T09:06:41;-4.00;99.90
17956;DHT22;27666;51.498;11.966;2022-12-18T09:09:28;-3.90;99.90
17956;DHT22;27666;51.498;11.966;2022-12-18T09:12:16;-3.80;99.90
17956;DHT22;27666;51.498;11.966;2022-12-18T09:15:03;-3.80;99.90
17956;DHT22;27666;51.498;11.966;2022-12-18T09:17:50;-3.70;99.90
17956;DHT22;27666;51.498;11.966;2022-12-18T09:20:38;-3.60;99.90
17956;DHT22;27666;51.498;11.966;2022-12-18T09:23:25;-3.50;99.90
17956;DHT22;27666;51.498;11.966;2022-12-18T09:26:11;-3.40;99.90
17956;DHT22;27666;51.498;11.966;2022-12-18T09:28:59;-3.60;99.90
17956;DHT22;27666;51.498;11.966;2022-12-18T09:31:45;-3.80;99.90
17956;DHT22;27666;51.498;11.966;2022-12-18T09:34:32;-3.90;99.90
17956;DHT22;27666;51.498;11.966;2022-12-18T09:37:18;-4.10;99.90
17956;DHT22;27666;51.498;11.966;2022-12-18T09:40:05;-4.00;99.90
17956;DHT22;27666;51.498;11.966;2022-12-18T09:42:55;-3.90;99.90
17956;DHT22;27666;51.498;11.966;2022-12-18T09:45:46;-3.70;99.90
17956;DHT22;27666;51.498;11.966;2022-12-18T09:48:36;-3.60;99.90
17956;DHT22;27666;51.498;11.966;2022-12-18T09:51:29;-3.90;99.90
17956;DHT22;27666;51.498;11.966;2022-12-18T09:54:20;-4.00;99.90
17956;DHT22;27666;51.498;11.966;2022-12-18T09:57:14;-4.00;99.90
17956;DHT22;27666;51.498;11.966;2022-12-18T10:00:06;-4.00;99.90
17956;DHT22;27666;51.498;11.966;2022-12-18T10:03:01;-4.00;99.90
17956;DHT22;27666;51.498;11.966;2022-12-18T10:05:57;-3.70;99.90
17956;DHT22;27666;51.498;11.966;2022-12-18T10:08:52;-3.80;99.90
17956;DHT22;27666;51.498;11.966;2022-12-18T10:11:48;-3.80;99.90
17956;DHT22;27666;51.498;11.966;2022-12-18T10:14:41;-4.00;99.90
17956;DHT22;27666;51.498;11.966;2022-12-18T10:17:37;-3.70;99.90
17956;DHT22;27666;51.498;11.966;2022-12-18T10:20:32;-3.40;99.90
17956;DHT22;27666;51.498;11.966;2022-12-18T10:23:23;-3.40;99.90
17956;DHT22;27666;51.498;11.966;2022-12-18T10:26:11;-3.30;99.90
17956;DHT22;27666;51.498;11.966;2022-12-18T10:28:59;-3.40;99.90
17956;DHT22;27666;51.498;11.966;2022-12-18T10:31:49;-3.30;99.90
17956;DHT22;27666;51.498;11.966;2022-12-18T10:34:36;-3.50;99.90
17956;DHT22;27666;51.498;11.966;2022-12-18T10:37:25;-3.60;99.90
17956;DHT22;27666;51.498;11.966;2022-12-18T10:40:14;-3.70;99.90
17956;DHT22;27666;51.498;11.966;2022-12-18T10:43:12;-3.60;99.90
17956;DHT22;27666;51.498;11.966;2022-12-18T10:46:16;-3.50;99.90
17956;DHT22;27666;51.498;11.966;2022-12-18T10:49:17;-3.60;99.90
17956;DHT22;27666;51.498;11.966;2022-12-18T10:52:07;-3.70;99.90
17956;DHT22;27666;51.498;11.966;2022-12-18T10:54:58;-3.60;99.90
17956;DHT22;27666;51.498;11.966;2022-12-18T10:57:47;-3.50;99.90
17956;DHT22;27666;51.498;11.966;2022-12-18T11:00:33;-3.40;99.90
17956;DHT22;27666;51.498;11.966;2022-12-18T11:03:30;-3.40;99.90
17956;DHT22;27666;51.498;11.966;2022-12-18T11:06:18;-3.20;99.90
17956;DHT22;27666;51.498;11.966;2022-12-18T11:09:20;-3.20;99.90
17956;DHT22;27666;51.498;11.966;2022-12-18T11:12:17;-3.30;99.90
17956;DHT22;27666;51.498;11.966;2022-12-18T11:15:05;-3.30;99.90
17956;DHT22;27666;51.498;11.966;2022-12-18T11:17:52;-3.20;99.90
17956;DHT22;27666;51.498;11.966;2022-12-18T11:20:39;-3.30;99.90
17956;DHT22;27666;51.498;11.966;2022-12-18T11:23:27;-3.40;99.90
17956;DHT22;27666;51.498;11.966;2022-12-18T11:26:13;-3.40;99.90
17956;DHT22;27666;51.498;11.966;2022-12-18T11:29:10;-3.50;99.90
17956;DHT22;27666;51.498;11.966;2022-12-18T11:32:30;-3.50;99.90
17956;DHT22;27666;51.498;11.966;2022-12-18T11:35:23;-3.30;99.90
17956;DHT22;27666;51.498;11.966;2022-12-18T11:38:19;-3.20;99.90
17956;DHT22;27666;51.498;11.966;2022-12-18T11:41:16;-3.10;99.90
17956;DHT22;27666;51.498;11.966;2022-12-18T11:44:09;-3.00;99.90
17956;DHT22;27666;51.498;11.966;2022-12-18T11:47:01;-2.90;99.90
17956;DHT22;27666;51.498;11.966;2022-12-18T11:49:51;-3.10;99.90
17956;DHT22;27666;51.498;11.966;2022-12-18T11:52:39;-3.20;99.90
17956;DHT22;27666;51.498;11.966;2022-12-18T11:55:33;-3.10;99.90
17956;DHT22;27666;51.498;11.966;2022-12-18T11:58:37;-3.20;99.90
17956;DHT22;27666;51.498;11.966;2022-12-18T12:01:39;-3.20;99.90
17956;DHT22;27666;51.498;11.966;2022-12-18T12:04:53;-3.20;99.90
17956;DHT22;27666;51.498;11.966;2022-12-18T12:07:46;-3.10;99.90
17956;DHT22;27666;51.498;11.966;2022-12-18T12:10:50;-3.10;99.90
17956;DHT22;27666;51.498;11.966;2022-12-18T12:13:46;-3.00;99.90
17956;DHT22;27666;51.498;11.966;2022-12-18T12:16:39;-2.90;99.90
17956;DHT22;27666;51.498;11.966;2022-12-18T12:19:38;-2.90;99.90
17956;DHT22;27666;51.498;11.966;2022-12-18T12:22:33;-3.00;99.90
17956;DHT22;27666;51.498;11.966;2022-12-18T12:25:31;-3.00;99.90
17956;DHT22;27666;51.498;11.966;2022-12-18T12:28:24;-2.90;99.90
17956;DHT22;27666;51.498;11.966;2022-12-18T12:31:26;-2.70;99.90
17956;DHT22;27666;51.498;11.966;2022-12-18T12:34:20;-2.80;99.90
17956;DHT22;27666;51.498;11.966;2022-12-18T12:37:19;-2.80;99.90
17956;DHT22;27666;51.498;11.966;2022-12-18T12:40:11;-2.80;99.90
17956;DHT22;27666;51.498;11.966;2022-12-18T12:43:35;-2.90;99.90
17956;DHT22;27666;51.498;11.966;2022-12-18T12:46:23;-2.70;99.90
17956;DHT22;27666;51.498;11.966;2022-12-18T12:49:14;-2.80;99.90
17956;DHT22;27666;51.498;11.966;2022-12-18T12:52:06;-2.90;99.90
17956;DHT22;27666;51.498;11.966;2022-12-18T12:54:54;-2.90;99.90
17956;DHT22;27666;51.498;11.966;2022-12-18T12:57:45;-3.00;99.90
17956;DHT22;27666;51.498;11.966;2022-12-18T13:00:40;-3.00;99.90
17956;DHT22;27666;51.498;11.966;2022-12-18T13:03:41;-3.00;99.90
17956;DHT22;27666;51.498;11.966;2022-12-18T13:06:38;-3.00;99.90
17956;DHT22;27666;51.498;11.966;2022-12-18T13:09:34;-2.90;99.90
17956;DHT22;27666;51.498;11.966;2022-12-18T13:12:52;-2.90;99.90
17956;DHT22;27666;51.498;11.966;2022-12-18T13:15:46;-3.00;99.90
17956;DHT22;27666;51.498;11.966;2022-12-18T13:18:34;-3.00;99.90
17956;DHT22;27666;51.498;11.966;2022-12-18T13:21:24;-3.00;99.90
17956;DHT22;27666;51.498;11.966;2022-12-18T13:24:15;-3.00;99.90
17956;DHT22;27666;51.498;11.966;2022-12-18T13:30:47;-2.90;99.90
17956;DHT22;27666;51.498;11.966;2022-12-18T13:33:41;-3.00;99.90
17956;DHT22;27666;51.498;11.966;2022-12-18T13:36:49;-3.00;99.90
17956;DHT22;27666;51.498;11.966;2022-12-18T13:39:36;-3.00;99.90
17956;DHT22;27666;51.498;11.966;2022-12-18T13:42:40;-3.10;99.90
17956;DHT22;27666;51.498;11.966;2022-12-18T13:46:03;-3.30;99.90
17956;DHT22;27666;51.498;11.966;2022-12-18T13:48:54;-3.40;99.90
17956;DHT22;27666;51.498;11.966;2022-12-18T13:51:43;-3.60;99.90
17956;DHT22;27666;51.498;11.966;2022-12-18T13:54:35;-3.40;99.90
17956;DHT22;27666;51.498;11.966;2022-12-18T13:57:26;-3.50;99.90
17956;DHT22;27666;51.498;11.966;2022-12-18T14:00:24;-3.70;99.90
17956;DHT22;27666;51.498;11.966;2022-12-18T14:03:31;-3.80;99.90
17956;DHT22;27666;51.498;11.966;2022-12-18T14:06:17;-3.90;99.90
17956;DHT22;27666;51.498;11.966;2022-12-18T14:09:03;-3.90;99.90
17956;DHT22;27666;51.498;11.966;2022-12-18T14:11:54;-4.00;99.90
17956;DHT22;27666;51.498;11.966;2022-12-18T14:15:03;-4.20;99.90
17956;DHT22;27666;51.498;11.966;2022-12-18T14:17:51;-4.30;99.90
17956;DHT22;27666;51.498;11.966;2022-12-18T14:20:43;-4.30;99.90
17956;DHT22;27666;51.498;11.966;2022-12-18T14:23:39;-4.30;99.90
17956;DHT22;27666;51.498;11.966;2022-12-18T14:26:29;-4.30;99.90
17956;DHT22;27666;51.498;11.966;2022-12-18T14:29:24;-4.20;99.90
17956;DHT22;27666;51.498;11.966;2022-12-18T14:32:12;-4.40;99.90
17956;DHT22;27666;51.498;11.966;2022-12-18T14:35:13;-4.50;99.90
17956;DHT22;27666;51.498;11.966;2022-12-18T14:38:26;-4.50;99.90
17956;DHT22;27666;51.498;11.966;2022-12-18T14:41:15;-4.70;99.90
17956;DHT22;27666;51.498;11.966;2022-12-18T14:44:06;-4.70;99.90
17956;DHT22;27666;51.498;11.966;2022-12-18T14:46:53;-4.80;99.90
17956;DHT22;27666;51.498;11.966;2022-12-18T14:49:41;-5.00;99.90
17956;DHT22;27666;51.498;11.966;2022-12-18T14:52:31;-4.90;99.90
17956;DHT22;27666;51.498;11.966;2022-12-18T14:55:20;-5.00;99.90
17956;DHT22;27666;51.498;11.966;2022-12-18T14:58:13;-4.90;99.90
17956;DHT22;27666;51.498;11.966;2022-12-18T15:01:00;-5.00;99.90
17956;DHT22;27666;51.498;11.966;2022-12-18T15:03:47;-5.10;99.90
17956;DHT22;27666;51.498;11.966;2022-12-18T15:06:35;-5.00;99.90
17956;DHT22;27666;51.498;11.966;2022-12-18T15:09:24;-5.00;99.90
17956;DHT22;27666;51.498;11.966;2022-12-18T15:12:24;-5.10;99.90
17956;DHT22;27666;51.498;11.966;2022-12-18T15:15:47;-5.10;99.90
17956;DHT22;27666;51.498;11.966;2022-12-18T15:18:35;-5.10;99.90
17956;DHT22;27666;51.498;11.966;2022-12-18T15:21:27;-5.20;99.90
17956;DHT22;27666;51.498;11.966;2022-12-18T15:24:20;-5.10;99.90
17956;DHT22;27666;51.498;11.966;2022-12-18T15:27:22;-5.10;99.90
17956;DHT22;27666;51.498;11.966;2022-12-18T15:30:27;-5.10;99.90
17956;DHT22;27666;51.498;11.966;2022-12-18T15:33:22;-5.10;99.90
17956;DHT22;27666;51.498;11.966;2022-12-18T15:36:11;-5.10;99.90
17956;DHT22;27666;51.498;11.966;2022-12-18T15:38:57;-5.00;99.90
17956;DHT22;27666;51.498;11.966;2022-12-18T15:41:48;-5.00;99.90
17956;DHT22;27666;51.498;11.966;2022-12-18T15:44:54;-4.90;99.90
17956;DHT22;27666;51.498;11.966;2022-12-18T15:47:40;-4.90;99.90
17956;DHT22;27666;51.498;11.966;2022-12-18T15:50:28;-4.90;99.90
17956;DHT22;27666;51.498;11.966;2022-12-18T15:53:15;-4.90;99.90
17956;DHT22;27666;51.498;11.966;2022-12-18T15:56:01;-5.00;99.90
17956;DHT22;27666;51.498;11.966;2022-12-18T15:59:09;-5.00;99.90
17956;DHT22;27666;51.498;11.966;2022-12-18T16:01:57;-5.00;99.90
17956;DHT22;27666;51.498;11.966;2022-12-18T16:04:44;-5.00;99.90
17956;DHT22;27666;51.498;11.966;2022-12-18T16:07:31;-5.00;99.90
17956;DHT22;27666;51.498;11.966;2022-12-18T16:10:17;-5.00;99.90
17956;DHT22;27666;51.498;11.966;2022-12-18T16:13:04;-5.00;99.90
17956;DHT22;27666;51.498;11.966;2022-12-18T16:15:52;-5.00;99.90
17956;DHT22;27666;51.498;11.966;2022-12-18T16:18:39;-4.90;99.90
17956;DHT22;27666;51.498;11.966;2022-12-18T16:21:26;-4.80;99.90
17956;DHT22;27666;51.498;11.966;2022-12-18T16:24:19;-4.80;99.90
17956;DHT22;27666;51.498;11.966;2022-12-18T16:27:07;-4.90;99.90
17956;DHT22;27666;51.498;11.966;2022-12-18T16:29:53;-4.90;99.90
17956;DHT22;27666;51.498;11.966;2022-12-18T16:32:40;-4.90;99.90
17956;DHT22;27666;51.498;11.966;2022-12-18T16:35:27;-4.90;99.90
17956;DHT22;27666;51.498;11.966;2022-12-18T16:38:14;-4.90;99.90
17956;DHT22;27666;51.498;11.966;2022-12-18T16:41:00;-4.90;99.90
17956;DHT22;27666;51.498;11.966;2022-12-18T16:44:04;-4.80;99.90
17956;DHT22;27666;51.498;11.966;2022-12-18T16:46:50;-4.90;99.90
17956;DHT22;27666;51.498;11.966;2022-12-18T16:49:37;-4.90;99.90
17956;DHT22;27666;51.498;11.966;2022-12-18T16:52:25;-5.00;99.90
17956;DHT22;27666;51.498;11.966;2022-12-18T16:55:12;-5.10;99.90
17956;DHT22;27666;51.498;11.966;2022-12-18T16:57:58;-5.00;99.90
17956;DHT22;27666;51.498;11.966;2022-12-18T17:00:44;-5.00;99.90
17956;DHT22;27666;51.498;11.966;2022-12-18T17:03:31;-5.00;99.90
17956;DHT22;27666;51.498;11.966;2022-12-18T17:06:17;-5.20;99.90
17956;DHT22;27666;51.498;11.966;2022-12-18T17:09:07;-5.10;99.90
17956;DHT22;27666;51.498;11.966;2022-12-18T17:11:54;-5.10;99.90
17956;DHT22;27666;51.498;11.966;2022-12-18T17:14:40;-5.10;99.90
17956;DHT22;27666;51.498;11.966;2022-12-18T17:17:27;-5.00;99.90
17956;DHT22;27666;51.498;11.966;2022-12-18T17:20:13;-4.80;99.90
17956;DHT22;27666;51.498;11.966;2022-12-18T17:23:00;-4.70;99.90
17956;DHT22;27666;51.498;11.966;2022-12-18T17:25:48;-4.70;99.90
17956;DHT22;27666;51.498;11.966;2022-12-18T17:28:35;-4.60;99.90
17956;DHT22;27666;51.498;11.966;2022-12-18T17:31:23;-4.70;99.90
17956;DHT22;27666;51.498;11.966;2022-12-18T17:34:11;-4.70;99.90
17956;DHT22;27666;51.498;11.966;2022-12-18T17:36:57;-4.50;99.90
17956;DHT22;27666;51.498;11.966;2022-12-18T17:39:44;-4.50;99.90
17956;DHT22;27666;51.498;11.966;2022-12-18T17:42:31;-4.50;99.90